Time;durP1;ratioP1;P1;durP2;ratioP2;P2;SDS_P1;SDS_P2;PMS_P1;PMS_P2;Temp;Humidity;BMP_temperature;BMP_pressure;BME280_temperature;BME280_humidity;BME280_pressure;Samples;Min_cycle;Max_cycle;Signal;HPM_P1;HPM_P2
2022/11/12 00:02:18;;;;;;;9.57;3.97;;;;;;;;;;5059053;28;20222;-92
2022/11/12 00:04:45;;;;;;;6.23;3.90;;;;;;;;;;5059060;28;20210;-93
2022/11/12 00:07:13;;;;;;;6.30;4.10;;;;;;;;;;5048000;28;20216;-93
2022/11/12 00:10:17;;;;;;;13.50;4.53;;;;;;;;;;5051227;28;20203;-93
2022/11/12 00:12:45;;;;;;;16.03;4.13;;;;;;;;;;5372033;22;20237;-91
2022/11/12 00:15:15;;;;;;;13.83;4.50;;;;;;;;;;5051315;28;20285;-90
2022/11/12 00:17:43;;;;;;;16.77;5.57;;;;;;;;;;5039717;28;20305;-94
2022/11/12 00:20:22;;;;;;;12.13;5.47;;;;;;;;;;5038670;28;20210;-91
2022/11/12 00:22:58;;;;;;;14.63;4.40;;;;;;;;;;5036148;28;20249;-91
2022/11/12 00:25:27;;;;;;;14.20;4.77;;;;;;;;;;5049813;28;20583;-92
2022/11/12 00:27:56;;;;;;;11.17;4.50;;;;;;;;;;5049518;28;20284;-91
2022/11/12 00:30:29;;;;;;;17.13;4.80;;;;;;;;;;5046793;28;20217;-92
2022/11/12 00:35:36;;;;;;;5.73;4.07;;;;;;;;;;6054418;23;20186;-87
2022/11/12 00:38:05;;;;;;;15.87;4.17;;;;;;;;;;5058383;28;20195;-90
2022/11/12 00:43:09;;;;;;;6.87;4.20;;;;;;;;;;5748535;22;20241;-90
2022/11/12 00:45:37;;;;;;;33.17;7.27;;;;;;;;;;5038480;28;20272;-90
2022/11/12 00:48:05;;;;;;;19.30;4.90;;;;;;;;;;5037930;28;20263;-90
2022/11/12 00:50:33;;;;;;;31.20;7.93;;;;;;;;;;5038877;28;20235;-90
2022/11/12 00:53:03;;;;;;;21.17;4.80;;;;;;;;;;5038094;28;20229;-90
2022/11/12 00:55:31;;;;;;;20.70;4.90;;;;;;;;;;5317544;22;20213;-87
2022/11/12 01:03:12;;;;;;;12.93;4.87;;;;;;;;;;5758102;22;20786;-90
2022/11/12 01:05:40;;;;;;;9.80;5.13;;;;;;;;;;5056370;28;20254;-84
2022/11/12 01:08:08;;;;;;;9.93;5.47;;;;;;;;;;5049810;22;20296;-83
2022/11/12 01:10:35;;;;;;;17.17;5.87;;;;;;;;;;5031450;28;20230;-81
2022/11/12 01:13:03;;;;;;;9.20;5.10;;;;;;;;;;5031392;28;20237;-81
2022/11/12 01:15:30;;;;;;;12.07;5.10;;;;;;;;;;5051575;28;20275;-81
2022/11/12 01:17:57;;;;;;;9.57;5.87;;;;;;;;;;5033340;28;20249;-81
2022/11/12 01:20:25;;;;;;;19.43;5.47;;;;;;;;;;5031403;28;20195;-81
2022/11/12 01:22:52;;;;;;;20.53;6.57;;;;;;;;;;5012473;28;20243;-81
2022/11/12 01:25:19;;;;;;;10.53;5.70;;;;;;;;;;5011604;28;20204;-83
2022/11/12 01:27:46;;;;;;;13.17;5.90;;;;;;;;;;5010965;28;20235;-81
2022/11/12 01:30:13;;;;;;;14.07;5.83;;;;;;;;;;5011323;28;20230;-81
2022/11/12 01:32:40;;;;;;;11.03;5.50;;;;;;;;;;5011131;28;20231;-81
2022/11/12 01:35:08;;;;;;;26.87;8.40;;;;;;;;;;5013261;28;20203;-81
2022/11/12 01:37:36;;;;;;;15.17;6.80;;;;;;;;;;5015594;28;20231;-81
2022/11/12 01:40:03;;;;;;;26.97;5.80;;;;;;;;;;5018067;28;20207;-81
2022/11/12 01:42:32;;;;;;;36.60;8.90;;;;;;;;;;5032715;28;20873;-81
2022/11/12 01:44:59;;;;;;;19.37;7.10;;;;;;;;;;5021714;28;20671;-81
2022/11/12 01:47:28;;;;;;;23.40;6.67;;;;;;;;;;5036711;28;20709;-81
2022/11/12 01:49:57;;;;;;;23.33;6.60;;;;;;;;;;5056977;28;20222;-81
2022/11/12 01:52:28;;;;;;;36.13;7.27;;;;;;;;;;5056655;28;20232;-80
2022/11/12 01:55:02;;;;;;;21.63;5.23;;;;;;;;;;5057838;28;20224;-81
2022/11/12 02:00:14;;;;;;;19.73;5.93;;;;;;;;;;5038833;28;20207;-81
2022/11/12 02:03:03;;;;;;;25.70;5.97;;;;;;;;;;5050966;28;20254;-82
2022/11/12 02:05:32;;;;;;;15.10;5.53;;;;;;;;;;5055205;28;20203;-82
2022/11/12 02:08:01;;;;;;;26.13;9.23;;;;;;;;;;5056346;28;20306;-82
2022/11/12 02:10:30;;;;;;;21.23;6.37;;;;;;;;;;5057004;28;20227;-82
2022/11/12 02:15:42;;;;;;;22.33;6.17;;;;;;;;;;5036675;28;20657;-82
2022/11/12 02:18:09;;;;;;;18.50;6.40;;;;;;;;;;5017090;28;20223;-83
2022/11/12 02:20:37;;;;;;;9.83;5.50;;;;;;;;;;5017996;28;20196;-83
2022/11/12 02:23:05;;;;;;;15.30;5.93;;;;;;;;;;5037505;28;20592;-83
2022/11/12 02:25:33;;;;;;;16.90;6.13;;;;;;;;;;5038081;28;20206;-83
2022/11/12 02:28:01;;;;;;;13.37;6.10;;;;;;;;;;5036579;28;20234;-83
2022/11/12 02:30:33;;;;;;;9.63;4.63;;;;;;;;;;5037535;28;20234;-83
2022/11/12 02:33:00;;;;;;;15.87;4.80;;;;;;;;;;5017606;28;20242;-83
2022/11/12 02:35:27;;;;;;;9.23;4.47;;;;;;;;;;5017335;28;20547;-83
2022/11/12 02:37:54;;;;;;;7.80;4.27;;;;;;;;;;5016036;28;20242;-83
2022/11/12 02:40:23;;;;;;;9.90;4.13;;;;;;;;;;5017509;28;20211;-83
2022/11/12 02:42:50;;;;;;;11.53;4.93;;;;;;;;;;5035165;28;20228;-83
2022/11/12 02:45:17;;;;;;;5.93;4.20;;;;;;;;;;5026092;28;20198;-83
2022/11/12 02:47:44;;;;;;;11.73;4.73;;;;;;;;;;5032968;28;20593;-82
2022/11/12 02:50:12;;;;;;;19.23;4.20;;;;;;;;;;5034151;28;20689;-83
2022/11/12 02:52:39;;;;;;;9.00;4.43;;;;;;;;;;5017442;28;20239;-83
2022/11/12 02:55:07;;;;;;;7.43;4.10;;;;;;;;;;5014527;28;20219;-83
2022/11/12 02:57:35;;;;;;;13.50;4.63;;;;;;;;;;5029529;28;20230;-83
2022/11/12 03:00:03;;;;;;;18.07;4.37;;;;;;;;;;5034651;28;20226;-83
2022/11/12 03:02:30;;;;;;;7.03;4.53;;;;;;;;;;5018475;28;20235;-83
2022/11/12 03:04:57;;;;;;;17.33;5.03;;;;;;;;;;5014434;28;20227;-82
2022/11/12 03:07:24;;;;;;;9.83;4.90;;;;;;;;;;5028019;28;20242;-83
2022/11/12 03:09:51;;;;;;;11.03;4.40;;;;;;;;;;5034491;28;20238;-83
2022/11/12 03:12:18;;;;;;;15.67;5.90;;;;;;;;;;5019828;28;20231;-83
2022/11/12 03:14:46;;;;;;;11.07;4.77;;;;;;;;;;5013346;28;20234;-82
2022/11/12 03:17:14;;;;;;;14.90;5.00;;;;;;;;;;5027225;28;20247;-82
2022/11/12 03:19:41;;;;;;;13.57;4.63;;;;;;;;;;5034062;28;20202;-82
2022/11/12 03:22:08;;;;;;;9.90;4.70;;;;;;;;;;5020834;28;20235;-82
2022/11/12 03:24:35;;;;;;;10.13;5.00;;;;;;;;;;5014199;28;20204;-82
2022/11/12 03:27:02;;;;;;;5.87;4.17;;;;;;;;;;5025702;28;20583;-82
2022/11/12 03:29:29;;;;;;;12.60;4.53;;;;;;;;;;5016684;28;20654;-82
2022/11/12 03:31:57;;;;;;;12.03;4.63;;;;;;;;;;5022419;28;20231;-82
2022/11/12 03:34:24;;;;;;;12.43;5.20;;;;;;;;;;5013578;28;20199;-82
2022/11/12 03:36:51;;;;;;;13.57;4.90;;;;;;;;;;5023593;28;20337;-83
2022/11/12 03:39:19;;;;;;;17.07;5.23;;;;;;;;;;5032520;28;20209;-83
2022/11/12 03:41:46;;;;;;;18.37;5.00;;;;;;;;;;5022700;28;20712;-83
2022/11/12 03:44:13;;;;;;;10.27;4.60;;;;;;;;;;5013609;28;20200;-83
2022/11/12 03:46:40;;;;;;;13.33;5.03;;;;;;;;;;5021934;28;20611;-82
2022/11/12 03:49:08;;;;;;;22.00;4.90;;;;;;;;;;5028051;28;20206;-82
2022/11/12 03:51:35;;;;;;;8.43;4.77;;;;;;;;;;5014754;28;20235;-82
2022/11/12 03:54:02;;;;;;;9.57;4.97;;;;;;;;;;5013346;28;20218;-82
2022/11/12 03:56:29;;;;;;;7.30;4.33;;;;;;;;;;5015411;28;20234;-82
2022/11/12 03:58:57;;;;;;;10.47;4.70;;;;;;;;;;5031975;28;20218;-83
2022/11/12 04:01:24;;;;;;;8.17;4.80;;;;;;;;;;5026225;28;20238;-82
2022/11/12 04:03:51;;;;;;;14.93;5.07;;;;;;;;;;5013530;28;20211;-82
2022/11/12 04:09:04;;;;;;;9.53;4.70;;;;;;;;;;5032672;28;20245;-82
2022/11/12 04:11:31;;;;;;;11.67;4.80;;;;;;;;;;5024975;28;20235;-82
2022/11/12 04:13:59;;;;;;;4.87;4.47;;;;;;;;;;5012969;28;20583;-82
2022/11/12 04:22:01;;;;;;;5.97;4.47;;;;;;;;;;5021119;28;20261;-82
2022/11/12 04:27:15;;;;;;;8.80;5.07;;;;;;;;;;4992856;28;20251;-82
2022/11/12 04:32:28;;;;;;;7.07;5.03;;;;;;;;;;4992671;28;20238;-82
2022/11/12 04:34:55;;;;;;;9.13;5.50;;;;;;;;;;4993174;28;20583;-82
2022/11/12 04:37:24;;;;;;;11.30;5.60;;;;;;;;;;5007091;28;20239;-83
2022/11/12 04:39:51;;;;;;;8.60;5.70;;;;;;;;;;5028369;28;20579;-82
2022/11/12 04:45:04;;;;;;;12.13;5.53;;;;;;;;;;5018426;28;20960;-82
2022/11/12 04:47:33;;;;;;;8.63;5.47;;;;;;;;;;5031787;28;20234;-82
2022/11/12 04:50:01;;;;;;;11.10;5.23;;;;;;;;;;5036164;28;20207;-81
2022/11/12 04:52:30;;;;;;;8.40;5.83;;;;;;;;;;5044569;28;20690;-82
2022/11/12 04:54:57;;;;;;;10.23;4.83;;;;;;;;;;5036676;28;20219;-82
2022/11/12 04:57:25;;;;;;;6.70;4.90;;;;;;;;;;5020336;28;20730;-82
2022/11/12 04:59:52;;;;;;;7.77;5.23;;;;;;;;;;4999211;28;20208;-81
2022/11/12 05:02:19;;;;;;;7.60;5.50;;;;;;;;;;5037222;28;20211;-81
2022/11/12 05:04:46;;;;;;;9.17;5.87;;;;;;;;;;5042592;28;20213;-82
2022/11/12 05:07:14;;;;;;;10.70;5.77;;;;;;;;;;5011692;28;20235;-82
2022/11/12 05:09:42;;;;;;;9.80;5.57;;;;;;;;;;5012262;28;20208;-82
2022/11/12 05:12:09;;;;;;;8.80;5.10;;;;;;;;;;5006707;28;20247;-82
2022/11/12 05:14:37;;;;;;;6.83;5.23;;;;;;;;;;5010534;28;20214;-83
2022/11/12 05:17:04;;;;;;;10.77;5.67;;;;;;;;;;5004760;28;20235;-82
2022/11/12 05:19:31;;;;;;;8.57;5.40;;;;;;;;;;5030686;28;20198;-82
2022/11/12 05:22:07;;;;;;;10.57;6.00;;;;;;;;;;5012095;28;20234;-82
2022/11/12 05:24:38;;;;;;;14.17;6.03;;;;;;;;;;5029868;28;20206;-82
2022/11/12 05:27:08;;;;;;;8.23;5.47;;;;;;;;;;5014932;28;20666;-82
2022/11/12 05:29:35;;;;;;;13.83;5.20;;;;;;;;;;5031418;28;20199;-82
2022/11/12 05:32:02;;;;;;;10.30;5.50;;;;;;;;;;5026878;28;20235;-82
2022/11/12 05:34:29;;;;;;;9.57;5.80;;;;;;;;;;5021203;28;20205;-82
2022/11/12 05:36:57;;;;;;;14.47;5.63;;;;;;;;;;5011898;28;20243;-83
2022/11/12 05:39:24;;;;;;;13.20;6.27;;;;;;;;;;5006703;28;20207;-82
2022/11/12 05:41:51;;;;;;;12.00;6.10;;;;;;;;;;5010992;28;20243;-82
2022/11/12 05:44:19;;;;;;;9.23;6.80;;;;;;;;;;5011675;28;20199;-83
2022/11/12 05:46:47;;;;;;;9.83;5.80;;;;;;;;;;5010914;28;20231;-82
2022/11/12 05:49:14;;;;;;;7.30;6.03;;;;;;;;;;5011431;28;20207;-82
2022/11/12 05:51:41;;;;;;;16.93;6.10;;;;;;;;;;5020071;28;20230;-82
2022/11/12 05:54:09;;;;;;;11.60;5.80;;;;;;;;;;5031556;28;20206;-82
2022/11/12 05:56:36;;;;;;;17.30;6.10;;;;;;;;;;5031141;28;20234;-82
2022/11/12 05:59:05;;;;;;;14.30;6.40;;;;;;;;;;5015846;28;20210;-82
2022/11/12 06:01:34;;;;;;;7.00;6.13;;;;;;;;;;5023333;28;20227;-82
2022/11/12 06:04:01;;;;;;;17.50;6.13;;;;;;;;;;5012055;28;20672;-82
2022/11/12 06:06:28;;;;;;;18.70;6.63;;;;;;;;;;5018996;28;20325;-82
2022/11/12 06:08:56;;;;;;;13.43;6.37;;;;;;;;;;5031116;28;20667;-83
2022/11/12 06:11:23;;;;;;;23.00;6.60;;;;;;;;;;5024612;28;20238;-82
2022/11/12 06:13:50;;;;;;;19.33;6.50;;;;;;;;;;5011572;28;20211;-81
2022/11/12 06:16:17;;;;;;;12.57;5.83;;;;;;;;;;5016748;28;20633;-81
2022/11/12 06:18:45;;;;;;;25.20;6.60;;;;;;;;;;5030876;28;20218;-82
2022/11/12 06:21:22;;;;;;;43.90;11.57;;;;;;;;;;5025978;28;20231;-81
2022/11/12 06:23:50;;;;;;;18.03;6.17;;;;;;;;;;5015192;28;20242;-81
2022/11/12 06:26:17;;;;;;;10.03;5.57;;;;;;;;;;5020293;28;20257;-81
2022/11/12 06:28:44;;;;;;;23.77;6.33;;;;;;;;;;5034288;28;20242;-82
2022/11/12 06:31:11;;;;;;;29.23;6.47;;;;;;;;;;5033728;28;20687;-82
2022/11/12 06:33:38;;;;;;;21.03;8.77;;;;;;;;;;5030166;28;20207;-81
2022/11/12 06:36:07;;;;;;;53.43;7.57;;;;;;;;;;5028727;28;20223;-81
2022/11/12 06:38:35;;;;;;;10.63;6.17;;;;;;;;;;5032455;28;20234;-82
2022/11/12 06:41:02;;;;;;;8.47;5.73;;;;;;;;;;5027827;28;20687;-82
2022/11/12 06:43:30;;;;;;;12.10;6.00;;;;;;;;;;5014534;28;20203;-81
2022/11/12 06:45:59;;;;;;;8.20;5.40;;;;;;;;;;5014444;28;20231;-81
2022/11/12 06:48:27;;;;;;;21.87;6.47;;;;;;;;;;5010607;28;20277;-81
2022/11/12 06:50:54;;;;;;;9.03;6.43;;;;;;;;;;5012094;28;20226;-81
2022/11/12 06:53:22;;;;;;;7.43;6.23;;;;;;;;;;5013175;28;20208;-81
2022/11/12 06:55:49;;;;;;;16.00;7.30;;;;;;;;;;5007858;28;20206;-81
2022/11/12 06:58:16;;;;;;;10.73;6.00;;;;;;;;;;5013827;28;20240;-81
2022/11/12 07:00:43;;;;;;;9.30;6.30;;;;;;;;;;5013601;28;20209;-81
2022/11/12 07:03:13;;;;;;;5.57;5.07;;;;;;;;;;5011883;28;20211;-81
2022/11/12 07:05:40;;;;;;;5.60;5.00;;;;;;;;;;5005402;28;20205;-81
2022/11/12 07:08:07;;;;;;;8.27;4.67;;;;;;;;;;5001087;28;20230;-82
2022/11/12 07:10:35;;;;;;;5.83;4.50;;;;;;;;;;5014319;28;20214;-82
2022/11/12 07:13:03;;;;;;;8.43;4.60;;;;;;;;;;5031545;23;20231;-85
2022/11/12 07:15:30;;;;;;;8.83;4.53;;;;;;;;;;5022294;28;20198;-85
2022/11/12 07:17:57;;;;;;;8.33;5.17;;;;;;;;;;5048710;28;20234;-85
2022/11/12 07:20:24;;;;;;;5.30;4.73;;;;;;;;;;5027303;28;20581;-84
2022/11/12 07:22:51;;;;;;;5.87;4.47;;;;;;;;;;5027558;28;20235;-84
2022/11/12 07:25:18;;;;;;;8.47;4.60;;;;;;;;;;5033662;28;20222;-85
2022/11/12 07:27:48;;;;;;;8.87;4.50;;;;;;;;;;5032998;28;20233;-84
2022/11/12 07:30:16;;;;;;;6.87;4.37;;;;;;;;;;5033913;28;20592;-85
2022/11/12 07:32:43;;;;;;;10.10;4.97;;;;;;;;;;5031285;28;20232;-85
2022/11/12 07:35:10;;;;;;;10.90;5.10;;;;;;;;;;5018436;28;20207;-84
2022/11/12 07:37:37;;;;;;;14.03;5.03;;;;;;;;;;5030603;28;20235;-85
2022/11/12 07:40:05;;;;;;;12.07;4.67;;;;;;;;;;5033480;28;20199;-85
2022/11/12 07:42:33;;;;;;;9.03;4.97;;;;;;;;;;5028471;28;20686;-85
2022/11/12 07:45:02;;;;;;;19.80;6.23;;;;;;;;;;5030458;28;20665;-85
2022/11/12 07:47:29;;;;;;;19.07;6.63;;;;;;;;;;5021583;28;20228;-84
2022/11/12 07:49:56;;;;;;;11.97;6.53;;;;;;;;;;5024451;28;20211;-85
2022/11/12 07:52:23;;;;;;;19.97;5.93;;;;;;;;;;5020516;28;20234;-85
2022/11/12 07:54:50;;;;;;;24.40;6.33;;;;;;;;;;5026446;28;20199;-85
2022/11/12 07:57:17;;;;;;;19.53;6.43;;;;;;;;;;5032039;28;20245;-85
2022/11/12 07:59:44;;;;;;;15.80;6.20;;;;;;;;;;5017583;28;20204;-85
2022/11/12 08:02:13;;;;;;;23.97;5.93;;;;;;;;;;5026978;28;20690;-85
2022/11/12 08:04:40;;;;;;;18.57;6.10;;;;;;;;;;5027059;28;20210;-84
2022/11/12 08:07:07;;;;;;;10.67;5.83;;;;;;;;;;5026466;28;20711;-85
2022/11/12 08:09:34;;;;;;;20.50;6.20;;;;;;;;;;5022035;28;20223;-84
2022/11/12 08:12:01;;;;;;;23.73;6.50;;;;;;;;;;5026522;28;20237;-84
2022/11/12 08:14:28;;;;;;;11.47;6.20;;;;;;;;;;5032611;28;20199;-86
2022/11/12 08:16:55;;;;;;;26.00;7.77;;;;;;;;;;5031941;28;20238;-87
2022/11/12 08:19:24;;;;;;;9.73;6.43;;;;;;;;;;5027739;28;20687;-85
2022/11/12 08:21:51;;;;;;;14.63;6.90;;;;;;;;;;5012652;28;20758;-84
2022/11/12 08:24:18;;;;;;;11.17;6.13;;;;;;;;;;5031345;28;20689;-85
2022/11/12 08:26:45;;;;;;;13.90;6.70;;;;;;;;;;5031805;28;20718;-84
2022/11/12 08:29:12;;;;;;;16.27;6.87;;;;;;;;;;5031421;28;20209;-85
2022/11/12 08:31:39;;;;;;;12.77;6.97;;;;;;;;;;5031244;28;20702;-86
2022/11/12 08:34:11;;;;;;;16.00;6.80;;;;;;;;;;5030399;28;20659;-87
2022/11/12 08:36:40;;;;;;;13.10;6.63;;;;;;;;;;5031558;28;20234;-84
2022/11/12 08:39:08;;;;;;;11.93;7.30;;;;;;;;;;5019992;28;20198;-84
2022/11/12 08:41:35;;;;;;;9.70;7.13;;;;;;;;;;5030031;28;20227;-84
2022/11/12 08:44:02;;;;;;;11.00;7.43;;;;;;;;;;5032315;28;20597;-84
2022/11/12 08:46:30;;;;;;;20.23;7.87;;;;;;;;;;5031367;28;20230;-85
2022/11/12 08:48:57;;;;;;;12.73;8.07;;;;;;;;;;5032200;28;20211;-86
2022/11/12 08:51:24;;;;;;;16.80;8.00;;;;;;;;;;5031823;28;20768;-85
2022/11/12 08:53:52;;;;;;;12.80;7.40;;;;;;;;;;5032204;28;20234;-86
2022/11/12 08:56:20;;;;;;;10.07;8.03;;;;;;;;;;5031931;28;20230;-85
2022/11/12 08:58:47;;;;;;;10.77;8.13;;;;;;;;;;5032122;28;20202;-85
2022/11/12 09:01:14;;;;;;;10.10;8.47;;;;;;;;;;5031716;28;20234;-85
2022/11/12 09:03:41;;;;;;;12.23;8.87;;;;;;;;;;5032237;28;20233;-84
2022/11/12 09:06:08;;;;;;;11.43;8.87;;;;;;;;;;5031900;28;20241;-85
2022/11/12 09:08:36;;;;;;;13.60;9.63;;;;;;;;;;5031654;28;20662;-84
2022/11/12 09:11:05;;;;;;;14.30;10.40;;;;;;;;;;5031438;28;20260;-84
2022/11/12 09:13:32;;;;;;;20.37;17.90;;;;;;;;;;5031797;28;20246;-84
2022/11/12 09:16:01;;;;;;;13.07;10.13;;;;;;;;;;5031532;28;20234;-84
2022/11/12 09:18:28;;;;;;;12.13;9.27;;;;;;;;;;5031604;28;20218;-84
2022/11/12 09:21:00;;;;;;;10.40;9.30;;;;;;;;;;5031437;28;20237;-85
2022/11/12 09:23:27;;;;;;;12.73;9.23;;;;;;;;;;5031731;28;20702;-85
2022/11/12 09:25:55;;;;;;;12.27;10.27;;;;;;;;;;5031104;28;20210;-84
2022/11/12 09:28:24;;;;;;;11.37;9.00;;;;;;;;;;5031497;28;20683;-86
2022/11/12 09:30:51;;;;;;;10.13;8.83;;;;;;;;;;5031541;28;20211;-86
2022/11/12 09:33:19;;;;;;;11.33;9.07;;;;;;;;;;5031634;28;20241;-85
2022/11/12 09:35:47;;;;;;;10.33;9.07;;;;;;;;;;5031393;28;20230;-86
2022/11/12 09:38:14;;;;;;;11.77;8.73;;;;;;;;;;5031448;28;20207;-85
2022/11/12 09:40:49;;;;;;;11.80;8.77;;;;;;;;;;5031384;28;20261;-86
2022/11/12 09:43:19;;;;;;;11.57;9.30;;;;;;;;;;5031191;28;20222;-86
2022/11/12 09:45:47;;;;;;;12.23;9.13;;;;;;;;;;5031289;28;20214;-85
2022/11/12 09:48:18;;;;;;;10.43;8.03;;;;;;;;;;5031225;28;20662;-85
2022/11/12 09:50:50;;;;;;;10.80;8.73;;;;;;;;;;5031225;28;20199;-85
2022/11/12 09:53:19;;;;;;;10.83;9.60;;;;;;;;;;5031655;28;20237;-84
2022/11/12 09:55:48;;;;;;;25.20;22.67;;;;;;;;;;5031168;28;20207;-85
2022/11/12 09:58:16;;;;;;;14.47;12.40;;;;;;;;;;5035242;28;20689;-84
2022/11/12 10:00:47;;;;;;;10.97;9.33;;;;;;;;;;5035061;28;20210;-85
2022/11/12 10:03:23;;;;;;;11.53;8.60;;;;;;;;;;5035452;28;20226;-84
2022/11/12 10:05:54;;;;;;;11.13;8.80;;;;;;;;;;5035089;28;20206;-85
2022/11/12 10:08:29;;;;;;;9.17;8.23;;;;;;;;;;5034731;28;20207;-85
2022/11/12 10:11:02;;;;;;;9.47;8.37;;;;;;;;;;5034507;28;20240;-84
2022/11/12 10:13:39;;;;;;;11.53;9.17;;;;;;;;;;5034874;28;20676;-84
2022/11/12 10:19:14;;;;;;;11.13;8.97;;;;;;;;;;5034898;28;20581;-84
2022/11/12 10:21:46;;;;;;;11.13;9.63;;;;;;;;;;5034644;28;20235;-84
2022/11/12 10:24:13;;;;;;;10.27;8.80;;;;;;;;;;5035095;28;20541;-84
2022/11/12 10:26:40;;;;;;;9.97;8.73;;;;;;;;;;5034706;28;20234;-84
2022/11/12 10:29:13;;;;;;;12.83;9.47;;;;;;;;;;5034387;28;20217;-84
2022/11/12 10:31:40;;;;;;;12.07;10.13;;;;;;;;;;5034081;28;20227;-85
2022/11/12 10:34:19;;;;;;;10.70;9.53;;;;;;;;;;5034569;28;20218;-84
2022/11/12 10:36:49;;;;;;;11.47;9.17;;;;;;;;;;5034414;28;20233;-85
2022/11/12 10:39:33;;;;;;;9.47;8.27;;;;;;;;;;5034557;28;20214;-85
2022/11/12 10:42:04;;;;;;;8.80;7.90;;;;;;;;;;5034115;28;20234;-85
2022/11/12 10:44:31;;;;;;;8.17;7.37;;;;;;;;;;5034405;28;20217;-85
2022/11/12 10:47:16;;;;;;;8.23;7.43;;;;;;;;;;5034076;28;20255;-86
2022/11/12 10:49:45;;;;;;;8.23;7.40;;;;;;;;;;5034341;28;20221;-85
2022/11/12 10:52:21;;;;;;;8.53;7.47;;;;;;;;;;5033596;28;20235;-85
2022/11/12 10:54:48;;;;;;;8.77;7.87;;;;;;;;;;5034815;28;20197;-85
2022/11/12 10:57:22;;;;;;;8.37;7.53;;;;;;;;;;5036976;28;20234;-85
2022/11/12 11:00:06;;;;;;;10.83;7.97;;;;;;;;;;5034765;28;20221;-86
2022/11/12 11:02:33;;;;;;;8.80;7.90;;;;;;;;;;5033640;28;20238;-86
2022/11/12 11:05:01;;;;;;;8.67;7.63;;;;;;;;;;5033929;28;20639;-85
2022/11/12 11:07:28;;;;;;;9.27;8.37;;;;;;;;;;5033175;28;20237;-85
2022/11/12 11:09:56;;;;;;;9.27;7.90;;;;;;;;;;5033556;28;20218;-85
2022/11/12 11:12:24;;;;;;;9.43;8.43;;;;;;;;;;5032942;28;20238;-85
2022/11/12 11:15:06;;;;;;;8.50;7.23;;;;;;;;;;5033520;28;20217;-85
2022/11/12 11:17:33;;;;;;;8.53;7.60;;;;;;;;;;5033329;28;20326;-85
2022/11/12 11:20:02;;;;;;;8.50;7.70;;;;;;;;;;5033885;28;20207;-85
2022/11/12 11:22:35;;;;;;;8.00;7.20;;;;;;;;;;5033190;28;20722;-85
2022/11/12 11:25:15;;;;;;;8.47;7.50;;;;;;;;;;5034175;28;20213;-85
2022/11/12 11:27:45;;;;;;;9.70;8.30;;;;;;;;;;5033215;28;20732;-85
2022/11/12 11:30:14;;;;;;;11.83;9.67;;;;;;;;;;5033663;28;20211;-86
2022/11/12 11:32:59;;;;;;;11.03;8.97;;;;;;;;;;5033154;28;20258;-85
2022/11/12 11:35:30;;;;;;;10.70;8.70;;;;;;;;;;5024149;28;20206;-86
2022/11/12 11:38:06;;;;;;;9.33;8.33;;;;;;;;;;5032575;28;20241;-87
2022/11/12 11:40:37;;;;;;;10.80;8.33;;;;;;;;;;5033305;28;20587;-86
2022/11/12 11:43:09;;;;;;;10.20;8.90;;;;;;;;;;5031966;28;20233;-86
2022/11/12 11:45:41;;;;;;;9.53;8.53;;;;;;;;;;5031629;28;20203;-87
2022/11/12 11:48:13;;;;;;;10.10;8.27;;;;;;;;;;5033040;28;20198;-86
2022/11/12 11:50:43;;;;;;;10.23;9.23;;;;;;;;;;5032653;28;20187;-87
2022/11/12 11:53:16;;;;;;;9.67;8.33;;;;;;;;;;5032526;28;20234;-86
2022/11/12 11:55:52;;;;;;;11.03;8.73;;;;;;;;;;5032489;28;20206;-86
2022/11/12 11:58:35;;;;;;;9.93;8.30;;;;;;;;;;5022974;28;20211;-86
2022/11/12 12:01:09;;;;;;;9.27;8.27;;;;;;;;;;5012580;28;20227;-86
2022/11/12 12:03:41;;;;;;;9.83;8.27;;;;;;;;;;5012749;28;20219;-86
2022/11/12 12:06:17;;;;;;;8.70;7.90;;;;;;;;;;5012421;28;20231;-86
2022/11/12 12:08:50;;;;;;;9.70;8.23;;;;;;;;;;5012692;28;20214;-86
2022/11/12 12:11:21;;;;;;;9.83;8.30;;;;;;;;;;5012290;28;20231;-86
2022/11/12 12:13:59;;;;;;;8.40;7.57;;;;;;;;;;5012323;28;20258;-86
2022/11/12 12:16:34;;;;;;;12.33;8.70;;;;;;;;;;5012135;28;20633;-86
2022/11/12 12:19:04;;;;;;;9.20;8.23;;;;;;;;;;5012143;28;20218;-85
2022/11/12 12:21:35;;;;;;;9.43;7.77;;;;;;;;;;5012115;28;20715;-86
2022/11/12 12:24:03;;;;;;;12.87;9.90;;;;;;;;;;5012807;28;20215;-86
2022/11/12 12:26:36;;;;;;;10.67;8.60;;;;;;;;;;5012073;28;20239;-85
2022/11/12 12:29:05;;;;;;;10.27;9.13;;;;;;;;;;5012383;28;20208;-86
2022/11/12 12:31:36;;;;;;;11.17;8.40;;;;;;;;;;5012008;28;20239;-85
2022/11/12 12:34:04;;;;;;;8.13;7.33;;;;;;;;;;5012428;28;20227;-86
2022/11/12 12:36:37;;;;;;;12.00;8.27;;;;;;;;;;5012044;28;20235;-85
2022/11/12 12:39:08;;;;;;;9.30;8.23;;;;;;;;;;5016593;28;20202;-86
2022/11/12 12:41:40;;;;;;;8.17;7.37;;;;;;;;;;5014186;28;20323;-86
2022/11/12 12:44:09;;;;;;;8.03;7.23;;;;;;;;;;5012365;28;20204;-86
2022/11/12 12:46:40;;;;;;;11.10;8.50;;;;;;;;;;5014027;28;20223;-86
2022/11/12 12:49:07;;;;;;;11.93;9.10;;;;;;;;;;5012245;28;20286;-86
2022/11/12 12:51:36;;;;;;;8.70;7.90;;;;;;;;;;5013130;28;20232;-86
2022/11/12 12:54:03;;;;;;;10.60;9.00;;;;;;;;;;5012034;28;20231;-87
2022/11/12 12:56:48;;;;;;;9.93;7.70;;;;;;;;;;5011661;28;20254;-86
2022/11/12 12:59:20;;;;;;;9.77;8.50;;;;;;;;;;5029233;28;20206;-87
2022/11/12 13:01:55;;;;;;;9.60;8.20;;;;;;;;;;5031476;28;20690;-87
2022/11/12 13:04:37;;;;;;;10.67;9.37;;;;;;;;;;5031625;28;20213;-87
2022/11/12 13:07:05;;;;;;;11.23;8.40;;;;;;;;;;5030871;28;20713;-87
2022/11/12 13:09:32;;;;;;;10.60;9.17;;;;;;;;;;5031394;28;20217;-87
2022/11/12 13:14:46;;;;;;;11.47;9.10;;;;;;;;;;5039920;23;20597;-80
2022/11/12 13:17:14;;;;;;;11.07;8.73;;;;;;;;;;5035867;28;20235;-80
2022/11/12 13:19:44;;;;;;;9.83;8.13;;;;;;;;;;5031321;28;20203;-80
2022/11/12 13:22:26;;;;;;;9.77;8.70;;;;;;;;;;5030942;28;20318;-81
2022/11/12 13:25:05;;;;;;;10.33;8.80;;;;;;;;;;5031909;28;20237;-80
2022/11/12 13:28:00;;;;;;;9.10;8.20;;;;;;;;;;5030433;28;20245;-80
2022/11/12 13:30:45;;;;;;;10.77;8.87;;;;;;;;;;5030375;28;20212;-80
2022/11/12 13:33:21;;;;;;;10.27;8.63;;;;;;;;;;5030949;28;20245;-80
2022/11/12 13:35:48;;;;;;;10.40;8.73;;;;;;;;;;5030900;28;20210;-80
2022/11/12 13:38:16;;;;;;;10.27;9.07;;;;;;;;;;5031070;28;20214;-80
2022/11/12 13:40:46;;;;;;;9.27;8.30;;;;;;;;;;5030847;28;20215;-81
2022/11/12 13:43:16;;;;;;;10.10;8.57;;;;;;;;;;5030898;28;20730;-80
2022/11/12 13:45:47;;;;;;;10.37;9.27;;;;;;;;;;5030892;28;20714;-81
2022/11/12 13:48:15;;;;;;;10.23;8.60;;;;;;;;;;5030797;28;20206;-80
2022/11/12 13:50:43;;;;;;;9.43;8.43;;;;;;;;;;5030774;28;20207;-81
2022/11/12 13:53:11;;;;;;;9.67;8.67;;;;;;;;;;5030806;28;20226;-80
2022/11/12 13:55:47;;;;;;;11.13;9.30;;;;;;;;;;5030316;28;20207;-81
2022/11/12 13:58:20;;;;;;;10.17;8.93;;;;;;;;;;5021689;28;20675;-80
2022/11/12 14:00:54;;;;;;;10.60;9.40;;;;;;;;;;5010703;28;20695;-81
2022/11/12 14:03:21;;;;;;;10.30;9.17;;;;;;;;;;5011044;28;20315;-80
2022/11/12 14:05:50;;;;;;;11.77;10.20;;;;;;;;;;5010347;28;20215;-80
2022/11/12 14:08:31;;;;;;;11.70;10.47;;;;;;;;;;5010782;28;20208;-80
2022/11/12 14:11:04;;;;;;;11.53;9.57;;;;;;;;;;5010782;28;20231;-81
2022/11/12 14:13:45;;;;;;;12.20;9.67;;;;;;;;;;5010622;28;20254;-80
2022/11/12 14:16:20;;;;;;;10.83;9.73;;;;;;;;;;5010170;28;20235;-81
2022/11/12 14:18:57;;;;;;;10.07;9.00;;;;;;;;;;5010917;28;20198;-80
2022/11/12 14:21:24;;;;;;;11.07;9.87;;;;;;;;;;5010265;28;20237;-80
2022/11/12 14:23:51;;;;;;;14.80;10.20;;;;;;;;;;5010634;28;20576;-80
2022/11/12 14:26:34;;;;;;;13.47;10.80;;;;;;;;;;5009887;28;20330;-80
2022/11/12 14:29:03;;;;;;;13.07;10.47;;;;;;;;;;5010649;28;20218;-80
2022/11/12 14:31:30;;;;;;;12.53;10.90;;;;;;;;;;5010494;28;20235;-80
2022/11/12 14:33:57;;;;;;;14.63;11.37;;;;;;;;;;5010657;28;20301;-80
2022/11/12 14:36:26;;;;;;;13.07;11.20;;;;;;;;;;5009882;28;20238;-80
2022/11/12 14:38:55;;;;;;;15.50;12.20;;;;;;;;;;5010488;28;20207;-80
2022/11/12 14:41:24;;;;;;;15.53;12.60;;;;;;;;;;5010011;28;20231;-81
2022/11/12 14:43:53;;;;;;;15.00;12.60;;;;;;;;;;5012302;28;20715;-80
2022/11/12 14:46:24;;;;;;;14.47;12.20;;;;;;;;;;5013496;28;20323;-81
2022/11/12 14:48:53;;;;;;;15.63;12.27;;;;;;;;;;5014128;28;20218;-80
2022/11/12 14:51:20;;;;;;;18.03;13.40;;;;;;;;;;5013252;28;20231;-81
2022/11/12 14:53:48;;;;;;;17.83;13.53;;;;;;;;;;5013841;28;20326;-81
2022/11/12 14:56:20;;;;;;;15.63;13.07;;;;;;;;;;5013187;28;20230;-80
2022/11/12 14:58:47;;;;;;;20.77;13.10;;;;;;;;;;5027090;28;20221;-80
2022/11/12 15:01:19;;;;;;;17.63;13.30;;;;;;;;;;5033343;28;20273;-81
2022/11/12 15:03:47;;;;;;;16.90;12.93;;;;;;;;;;5033357;28;20230;-81
2022/11/12 15:06:15;;;;;;;17.27;13.43;;;;;;;;;;5033078;28;20605;-81
2022/11/12 15:08:42;;;;;;;17.67;13.50;;;;;;;;;;5033117;28;20217;-81
2022/11/12 15:11:16;;;;;;;17.13;13.63;;;;;;;;;;5033078;28;20226;-81
2022/11/12 15:13:44;;;;;;;22.23;17.00;;;;;;;;;;5033106;28;20817;-81
2022/11/12 15:16:12;;;;;;;19.47;14.87;;;;;;;;;;5032764;28;20235;-80
2022/11/12 15:18:40;;;;;;;18.00;14.80;;;;;;;;;;5033252;28;20214;-81
2022/11/12 15:21:10;;;;;;;20.40;15.13;;;;;;;;;;5032661;28;20230;-81
2022/11/12 15:23:38;;;;;;;18.67;14.77;;;;;;;;;;5033388;28;20226;-80
2022/11/12 15:26:05;;;;;;;22.00;16.67;;;;;;;;;;5032952;28;20237;-81